sensor_id;sensor_type;location;lat;lon;timestamp;P1;durP1;ratioP1;P2;durP2;ratioP2
50225;SDS011;36113;50.742;6.432;2023-02-05T00:01:13;36.75;;;19.40;;
50225;SDS011;36113;50.742;6.432;2023-02-05T00:03:38;31.42;;;19.98;;
50225;SDS011;36113;50.742;6.432;2023-02-05T00:06:03;34.88;;;20.10;;
50225;SDS011;36113;50.742;6.432;2023-02-05T00:08:29;33.65;;;20.65;;
50225;SDS011;36113;50.742;6.432;2023-02-05T00:10:55;33.28;;;20.17;;
50225;SDS011;36113;50.742;6.432;2023-02-05T00:13:21;30.23;;;18.63;;
50225;SDS011;36113;50.742;6.432;2023-02-05T00:15:46;25.60;;;17.40;;
50225;SDS011;36113;50.742;6.432;2023-02-05T00:18:12;25.63;;;16.67;;
50225;SDS011;36113;50.742;6.432;2023-02-05T00:20:37;32.55;;;18.42;;
50225;SDS011;36113;50.742;6.432;2023-02-05T00:23:03;34.78;;;17.70;;
50225;SDS011;36113;50.742;6.432;2023-02-05T00:25:28;32.88;;;18.52;;
50225;SDS011;36113;50.742;6.432;2023-02-05T00:27:55;28.90;;;16.80;;
50225;SDS011;36113;50.742;6.432;2023-02-05T00:30:20;27.35;;;15.63;;
50225;SDS011;36113;50.742;6.432;2023-02-05T00:32:45;23.27;;;13.68;;
50225;SDS011;36113;50.742;6.432;2023-02-05T00:35:11;22.30;;;12.75;;
50225;SDS011;36113;50.742;6.432;2023-02-05T00:37:36;21.67;;;12.80;;
50225;SDS011;36113;50.742;6.432;2023-02-05T00:40:02;23.38;;;14.05;;
50225;SDS011;36113;50.742;6.432;2023-02-05T00:42:28;22.90;;;14.15;;
50225;SDS011;36113;50.742;6.432;2023-02-05T00:44:54;20.85;;;13.13;;
50225;SDS011;36113;50.742;6.432;2023-02-05T00:47:19;19.55;;;11.27;;
50225;SDS011;36113;50.742;6.432;2023-02-05T00:49:45;18.33;;;11.45;;
50225;SDS011;36113;50.742;6.432;2023-02-05T00:52:10;16.85;;;10.93;;
50225;SDS011;36113;50.742;6.432;2023-02-05T00:54:35;22.33;;;11.35;;
50225;SDS011;36113;50.742;6.432;2023-02-05T00:57:00;14.50;;;10.00;;
50225;SDS011;36113;50.742;6.432;2023-02-05T00:59:26;16.52;;;9.45;;
50225;SDS011;36113;50.742;6.432;2023-02-05T01:01:51;19.33;;;10.80;;
50225;SDS011;36113;50.742;6.432;2023-02-05T01:04:16;17.63;;;11.10;;
50225;SDS011;36113;50.742;6.432;2023-02-05T01:06:42;17.02;;;11.70;;
50225;SDS011;36113;50.742;6.432;2023-02-05T01:09:07;24.95;;;13.48;;
50225;SDS011;36113;50.742;6.432;2023-02-05T01:11:32;20.02;;;12.95;;
50225;SDS011;36113;50.742;6.432;2023-02-05T01:13:58;24.13;;;13.13;;
50225;SDS011;36113;50.742;6.432;2023-02-05T01:16:23;20.70;;;12.25;;
50225;SDS011;36113;50.742;6.432;2023-02-05T01:18:49;18.85;;;11.35;;
50225;SDS011;36113;50.742;6.432;2023-02-05T01:21:14;17.63;;;11.07;;
50225;SDS011;36113;50.742;6.432;2023-02-05T01:23:39;17.13;;;11.32;;
50225;SDS011;36113;50.742;6.432;2023-02-05T01:26:05;16.38;;;10.60;;
50225;SDS011;36113;50.742;6.432;2023-02-05T01:28:30;14.90;;;9.68;;
50225;SDS011;36113;50.742;6.432;2023-02-05T01:30:55;13.90;;;9.35;;
50225;SDS011;36113;50.742;6.432;2023-02-05T01:33:21;15.40;;;9.35;;
50225;SDS011;36113;50.742;6.432;2023-02-05T01:35:46;15.30;;;9.10;;
50225;SDS011;36113;50.742;6.432;2023-02-05T01:38:11;14.13;;;9.65;;
50225;SDS011;36113;50.742;6.432;2023-02-05T01:40:38;15.20;;;9.30;;
50225;SDS011;36113;50.742;6.432;2023-02-05T01:43:04;13.65;;;9.07;;
50225;SDS011;36113;50.742;6.432;2023-02-05T01:48:23;14.95;;;9.13;;
50225;SDS011;36113;50.742;6.432;2023-02-05T01:50:57;14.20;;;8.82;;
50225;SDS011;36113;50.742;6.432;2023-02-05T01:53:26;15.93;;;10.10;;
50225;SDS011;36113;50.742;6.432;2023-02-05T01:55:54;18.80;;;9.88;;
50225;SDS011;36113;50.742;6.432;2023-02-05T01:58:25;16.48;;;9.88;;
50225;SDS011;36113;50.742;6.432;2023-02-05T02:00:53;22.55;;;10.50;;
50225;SDS011;36113;50.742;6.432;2023-02-05T02:03:18;16.38;;;10.25;;
50225;SDS011;36113;50.742;6.432;2023-02-05T02:05:45;18.65;;;9.80;;
50225;SDS011;36113;50.742;6.432;2023-02-05T02:08:10;18.15;;;10.48;;
50225;SDS011;36113;50.742;6.432;2023-02-05T02:10:36;22.75;;;11.63;;
50225;SDS011;36113;50.742;6.432;2023-02-05T02:15:28;19.85;;;12.02;;
50225;SDS011;36113;50.742;6.432;2023-02-05T02:17:56;20.67;;;12.52;;
50225;SDS011;36113;50.742;6.432;2023-02-05T02:20:46;23.85;;;13.63;;
50225;SDS011;36113;50.742;6.432;2023-02-05T02:23:21;23.35;;;13.05;;
50225;SDS011;36113;50.742;6.432;2023-02-05T02:37:24;19.73;;;12.63;;
50225;SDS011;36113;50.742;6.432;2023-02-05T02:40:08;23.38;;;13.88;;
50225;SDS011;36113;50.742;6.432;2023-02-05T02:42:40;21.23;;;13.15;;
50225;SDS011;36113;50.742;6.432;2023-02-05T02:45:11;24.83;;;13.82;;
50225;SDS011;36113;50.742;6.432;2023-02-05T02:50:12;22.63;;;14.13;;
50225;SDS011;36113;50.742;6.432;2023-02-05T02:52:44;23.40;;;14.05;;
50225;SDS011;36113;50.742;6.432;2023-02-05T02:55:12;29.23;;;15.77;;
50225;SDS011;36113;50.742;6.432;2023-02-05T02:57:41;25.27;;;14.75;;
50225;SDS011;36113;50.742;6.432;2023-02-05T03:00:12;27.77;;;14.73;;
50225;SDS011;36113;50.742;6.432;2023-02-05T03:02:42;26.40;;;15.90;;
50225;SDS011;36113;50.742;6.432;2023-02-05T03:05:10;29.05;;;15.35;;
50225;SDS011;36113;50.742;6.432;2023-02-05T03:07:42;27.55;;;15.77;;
50225;SDS011;36113;50.742;6.432;2023-02-05T03:10:19;32.75;;;17.60;;
50225;SDS011;36113;50.742;6.432;2023-02-05T03:12:50;38.22;;;18.05;;
50225;SDS011;36113;50.742;6.432;2023-02-05T03:15:15;36.38;;;19.38;;
50225;SDS011;36113;50.742;6.432;2023-02-05T03:17:41;33.85;;;18.88;;
50225;SDS011;36113;50.742;6.432;2023-02-05T03:20:24;40.22;;;22.52;;
50225;SDS011;36113;50.742;6.432;2023-02-05T03:22:51;37.00;;;21.08;;
50225;SDS011;36113;50.742;6.432;2023-02-05T03:25:18;40.65;;;22.30;;
50225;SDS011;36113;50.742;6.432;2023-02-05T03:27:45;44.90;;;22.88;;
50225;SDS011;36113;50.742;6.432;2023-02-05T03:30:11;41.88;;;21.73;;
50225;SDS011;36113;50.742;6.432;2023-02-05T03:32:53;34.97;;;21.85;;
50225;SDS011;36113;50.742;6.432;2023-02-05T03:43:29;52.00;;;25.02;;
50225;SDS011;36113;50.742;6.432;2023-02-05T03:46:21;45.80;;;23.42;;
50225;SDS011;36113;50.742;6.432;2023-02-05T03:48:58;44.50;;;24.30;;
50225;SDS011;36113;50.742;6.432;2023-02-05T03:51:50;48.97;;;25.20;;
50225;SDS011;36113;50.742;6.432;2023-02-05T03:54:30;48.17;;;25.52;;
50225;SDS011;36113;50.742;6.432;2023-02-05T03:59:55;49.40;;;25.67;;
50225;SDS011;36113;50.742;6.432;2023-02-05T04:04:48;45.88;;;23.85;;
50225;SDS011;36113;50.742;6.432;2023-02-05T04:07:13;48.10;;;26.88;;
50225;SDS011;36113;50.742;6.432;2023-02-05T04:09:39;56.92;;;26.92;;
50225;SDS011;36113;50.742;6.432;2023-02-05T04:12:04;46.10;;;26.10;;
50225;SDS011;36113;50.742;6.432;2023-02-05T04:14:30;51.80;;;25.75;;
50225;SDS011;36113;50.742;6.432;2023-02-05T04:16:55;50.78;;;26.20;;
50225;SDS011;36113;50.742;6.432;2023-02-05T04:19:20;48.75;;;24.52;;
50225;SDS011;36113;50.742;6.432;2023-02-05T04:21:46;42.22;;;24.70;;
50225;SDS011;36113;50.742;6.432;2023-02-05T04:24:11;43.35;;;23.75;;
50225;SDS011;36113;50.742;6.432;2023-02-05T04:26:36;45.95;;;23.42;;
50225;SDS011;36113;50.742;6.432;2023-02-05T04:29:02;45.97;;;23.48;;
50225;SDS011;36113;50.742;6.432;2023-02-05T04:31:27;33.53;;;19.58;;
50225;SDS011;36113;50.742;6.432;2023-02-05T04:33:52;27.08;;;15.07;;
50225;SDS011;36113;50.742;6.432;2023-02-05T04:36:18;16.85;;;11.48;;
50225;SDS011;36113;50.742;6.432;2023-02-05T04:38:43;23.70;;;13.05;;
50225;SDS011;36113;50.742;6.432;2023-02-05T04:41:08;20.02;;;13.02;;
50225;SDS011;36113;50.742;6.432;2023-02-05T04:43:34;20.02;;;12.00;;
50225;SDS011;36113;50.742;6.432;2023-02-05T04:46:05;17.33;;;11.07;;
50225;SDS011;36113;50.742;6.432;2023-02-05T04:48:31;28.38;;;15.75;;
50225;SDS011;36113;50.742;6.432;2023-02-05T04:50:57;28.65;;;15.45;;
50225;SDS011;36113;50.742;6.432;2023-02-05T04:53:23;26.13;;;16.17;;
50225;SDS011;36113;50.742;6.432;2023-02-05T04:55:48;33.53;;;16.42;;
50225;SDS011;36113;50.742;6.432;2023-02-05T04:58:13;39.38;;;19.52;;
50225;SDS011;36113;50.742;6.432;2023-02-05T05:00:38;37.95;;;20.17;;
50225;SDS011;36113;50.742;6.432;2023-02-05T05:03:04;34.95;;;20.88;;
50225;SDS011;36113;50.742;6.432;2023-02-05T05:05:29;33.17;;;20.02;;
50225;SDS011;36113;50.742;6.432;2023-02-05T05:07:55;37.92;;;20.02;;
50225;SDS011;36113;50.742;6.432;2023-02-05T05:10:20;39.17;;;21.48;;
50225;SDS011;36113;50.742;6.432;2023-02-05T05:12:46;39.83;;;21.05;;
50225;SDS011;36113;50.742;6.432;2023-02-05T05:15:11;41.63;;;22.00;;
50225;SDS011;36113;50.742;6.432;2023-02-05T05:17:36;37.17;;;21.13;;
50225;SDS011;36113;50.742;6.432;2023-02-05T05:20:02;41.70;;;21.25;;
50225;SDS011;36113;50.742;6.432;2023-02-05T05:22:27;38.63;;;20.67;;
50225;SDS011;36113;50.742;6.432;2023-02-05T05:24:53;38.35;;;21.88;;
50225;SDS011;36113;50.742;6.432;2023-02-05T05:27:18;35.70;;;20.38;;
50225;SDS011;36113;50.742;6.432;2023-02-05T05:29:48;37.08;;;20.30;;
50225;SDS011;36113;50.742;6.432;2023-02-05T05:32:13;32.00;;;19.92;;
50225;SDS011;36113;50.742;6.432;2023-02-05T05:34:38;36.15;;;20.85;;
50225;SDS011;36113;50.742;6.432;2023-02-05T05:37:04;33.97;;;20.48;;
50225;SDS011;36113;50.742;6.432;2023-02-05T05:39:29;32.72;;;19.05;;
50225;SDS011;36113;50.742;6.432;2023-02-05T05:42:13;34.72;;;19.85;;
50225;SDS011;36113;50.742;6.432;2023-02-05T05:44:57;36.50;;;21.05;;
50225;SDS011;36113;50.742;6.432;2023-02-05T05:47:22;37.67;;;21.17;;
50225;SDS011;36113;50.742;6.432;2023-02-05T05:49:47;38.40;;;21.48;;
50225;SDS011;36113;50.742;6.432;2023-02-05T05:52:13;33.90;;;20.65;;
50225;SDS011;36113;50.742;6.432;2023-02-05T05:54:38;33.60;;;21.35;;
50225;SDS011;36113;50.742;6.432;2023-02-05T05:57:03;36.97;;;21.33;;
50225;SDS011;36113;50.742;6.432;2023-02-05T05:59:30;39.45;;;21.75;;
50225;SDS011;36113;50.742;6.432;2023-02-05T06:01:56;38.50;;;22.13;;
50225;SDS011;36113;50.742;6.432;2023-02-05T06:04:21;37.55;;;21.17;;
50225;SDS011;36113;50.742;6.432;2023-02-05T06:06:46;34.15;;;21.30;;
50225;SDS011;36113;50.742;6.432;2023-02-05T06:09:12;34.03;;;21.63;;
50225;SDS011;36113;50.742;6.432;2023-02-05T06:11:37;35.03;;;20.05;;
50225;SDS011;36113;50.742;6.432;2023-02-05T06:14:02;35.55;;;21.40;;
50225;SDS011;36113;50.742;6.432;2023-02-05T06:16:28;36.85;;;21.98;;
50225;SDS011;36113;50.742;6.432;2023-02-05T06:18:53;43.38;;;23.27;;
50225;SDS011;36113;50.742;6.432;2023-02-05T06:21:19;41.97;;;24.23;;
50225;SDS011;36113;50.742;6.432;2023-02-05T06:23:45;37.75;;;22.92;;
50225;SDS011;36113;50.742;6.432;2023-02-05T06:26:10;42.20;;;24.92;;
50225;SDS011;36113;50.742;6.432;2023-02-05T06:28:35;43.30;;;24.17;;
50225;SDS011;36113;50.742;6.432;2023-02-05T06:31:01;39.47;;;24.48;;
50225;SDS011;36113;50.742;6.432;2023-02-05T06:33:26;36.95;;;23.98;;
50225;SDS011;36113;50.742;6.432;2023-02-05T06:35:51;43.88;;;25.38;;
50225;SDS011;36113;50.742;6.432;2023-02-05T06:38:17;39.00;;;24.33;;
50225;SDS011;36113;50.742;6.432;2023-02-05T06:40:42;39.47;;;24.67;;
50225;SDS011;36113;50.742;6.432;2023-02-05T06:43:07;43.22;;;25.23;;
50225;SDS011;36113;50.742;6.432;2023-02-05T06:45:33;38.00;;;26.27;;
50225;SDS011;36113;50.742;6.432;2023-02-05T06:47:58;39.17;;;25.17;;
50225;SDS011;36113;50.742;6.432;2023-02-05T06:50:23;34.38;;;23.73;;
50225;SDS011;36113;50.742;6.432;2023-02-05T06:52:49;41.47;;;25.42;;
50225;SDS011;36113;50.742;6.432;2023-02-05T06:55:15;39.10;;;24.35;;
50225;SDS011;36113;50.742;6.432;2023-02-05T06:57:41;39.20;;;25.58;;
50225;SDS011;36113;50.742;6.432;2023-02-05T07:00:06;40.33;;;24.75;;
50225;SDS011;36113;50.742;6.432;2023-02-05T07:02:32;40.87;;;25.23;;
50225;SDS011;36113;50.742;6.432;2023-02-05T07:04:58;40.65;;;24.98;;
50225;SDS011;36113;50.742;6.432;2023-02-05T07:07:23;36.53;;;24.63;;
50225;SDS011;36113;50.742;6.432;2023-02-05T07:09:48;39.22;;;25.13;;
50225;SDS011;36113;50.742;6.432;2023-02-05T07:12:14;33.72;;;23.88;;
50225;SDS011;36113;50.742;6.432;2023-02-05T07:14:40;37.58;;;24.35;;
50225;SDS011;36113;50.742;6.432;2023-02-05T07:17:06;35.73;;;24.83;;
50225;SDS011;36113;50.742;6.432;2023-02-05T07:19:32;39.03;;;22.90;;
50225;SDS011;36113;50.742;6.432;2023-02-05T07:21:58;38.22;;;23.98;;
50225;SDS011;36113;50.742;6.432;2023-02-05T07:24:23;32.88;;;20.85;;
50225;SDS011;36113;50.742;6.432;2023-02-05T07:26:49;29.95;;;21.52;;
50225;SDS011;36113;50.742;6.432;2023-02-05T07:29:14;31.42;;;21.40;;
50225;SDS011;36113;50.742;6.432;2023-02-05T07:31:39;25.20;;;19.10;;
50225;SDS011;36113;50.742;6.432;2023-02-05T07:34:05;30.40;;;19.40;;
50225;SDS011;36113;50.742;6.432;2023-02-05T07:36:30;29.48;;;21.17;;
50225;SDS011;36113;50.742;6.432;2023-02-05T07:38:55;27.63;;;18.20;;
50225;SDS011;36113;50.742;6.432;2023-02-05T07:41:21;28.38;;;20.00;;
50225;SDS011;36113;50.742;6.432;2023-02-05T07:43:49;29.13;;;17.95;;
50225;SDS011;36113;50.742;6.432;2023-02-05T07:46:16;24.23;;;17.02;;
50225;SDS011;36113;50.742;6.432;2023-02-05T07:48:41;26.85;;;18.40;;
50225;SDS011;36113;50.742;6.432;2023-02-05T07:51:07;31.38;;;19.83;;
50225;SDS011;36113;50.742;6.432;2023-02-05T07:53:39;24.40;;;17.95;;
50225;SDS011;36113;50.742;6.432;2023-02-05T07:56:04;22.65;;;16.92;;
50225;SDS011;36113;50.742;6.432;2023-02-05T07:58:30;27.15;;;18.83;;
50225;SDS011;36113;50.742;6.432;2023-02-05T08:00:58;25.80;;;16.63;;
50225;SDS011;36113;50.742;6.432;2023-02-05T08:03:24;25.25;;;18.67;;
50225;SDS011;36113;50.742;6.432;2023-02-05T08:05:50;30.25;;;20.50;;
50225;SDS011;36113;50.742;6.432;2023-02-05T08:08:15;25.33;;;16.73;;
50225;SDS011;36113;50.742;6.432;2023-02-05T08:10:40;18.38;;;14.02;;
50225;SDS011;36113;50.742;6.432;2023-02-05T08:13:06;18.15;;;12.77;;
50225;SDS011;36113;50.742;6.432;2023-02-05T08:15:31;21.83;;;13.82;;
50225;SDS011;36113;50.742;6.432;2023-02-05T08:17:56;17.90;;;12.40;;
50225;SDS011;36113;50.742;6.432;2023-02-05T08:20:21;16.77;;;12.45;;
50225;SDS011;36113;50.742;6.432;2023-02-05T08:22:47;15.45;;;11.98;;
50225;SDS011;36113;50.742;6.432;2023-02-05T08:25:13;15.68;;;11.35;;
50225;SDS011;36113;50.742;6.432;2023-02-05T08:27:39;12.10;;;10.25;;
50225;SDS011;36113;50.742;6.432;2023-02-05T08:30:06;14.80;;;12.15;;
50225;SDS011;36113;50.742;6.432;2023-02-05T08:32:34;11.50;;;10.13;;
50225;SDS011;36113;50.742;6.432;2023-02-05T08:34:59;11.45;;;9.40;;
50225;SDS011;36113;50.742;6.432;2023-02-05T08:37:25;11.50;;;9.40;;
50225;SDS011;36113;50.742;6.432;2023-02-05T08:39:51;10.85;;;9.23;;
50225;SDS011;36113;50.742;6.432;2023-02-05T08:42:16;12.43;;;10.05;;
50225;SDS011;36113;50.742;6.432;2023-02-05T08:44:42;11.05;;;9.57;;
50225;SDS011;36113;50.742;6.432;2023-02-05T08:47:08;11.32;;;8.10;;
50225;SDS011;36113;50.742;6.432;2023-02-05T08:49:33;9.77;;;8.15;;
50225;SDS011;36113;50.742;6.432;2023-02-05T08:51:58;8.60;;;6.80;;
50225;SDS011;36113;50.742;6.432;2023-02-05T08:54:24;8.45;;;6.53;;
50225;SDS011;36113;50.742;6.432;2023-02-05T08:56:49;6.03;;;4.82;;
50225;SDS011;36113;50.742;6.432;2023-02-05T08:59:16;6.80;;;4.22;;
50225;SDS011;36113;50.742;6.432;2023-02-05T09:01:42;6.20;;;3.53;;
50225;SDS011;36113;50.742;6.432;2023-02-05T09:04:11;7.45;;;3.50;;
50225;SDS011;36113;50.742;6.432;2023-02-05T09:06:38;4.57;;;2.63;;
50225;SDS011;36113;50.742;6.432;2023-02-05T09:09:04;4.70;;;2.30;;
50225;SDS011;36113;50.742;6.432;2023-02-05T09:11:29;5.22;;;1.95;;
50225;SDS011;36113;50.742;6.432;2023-02-05T09:13:57;1.70;;;1.60;;
50225;SDS011;36113;50.742;6.432;2023-02-05T09:16:23;2.75;;;1.77;;
50225;SDS011;36113;50.742;6.432;2023-02-05T09:18:49;1.65;;;1.35;;
50225;SDS011;36113;50.742;6.432;2023-02-05T09:21:15;2.90;;;1.50;;
50225;SDS011;36113;50.742;6.432;2023-02-05T09:23:40;4.55;;;1.33;;
50225;SDS011;36113;50.742;6.432;2023-02-05T09:26:06;1.80;;;1.42;;
50225;SDS011;36113;50.742;6.432;2023-02-05T09:28:33;1.45;;;0.90;;
50225;SDS011;36113;50.742;6.432;2023-02-05T09:31:02;3.85;;;1.40;;
50225;SDS011;36113;50.742;6.432;2023-02-05T09:33:30;4.10;;;1.30;;
50225;SDS011;36113;50.742;6.432;2023-02-05T09:35:55;1.27;;;1.17;;
50225;SDS011;36113;50.742;6.432;2023-02-05T09:38:20;2.38;;;1.73;;
50225;SDS011;36113;50.742;6.432;2023-02-05T09:41:04;5.35;;;1.60;;
50225;SDS011;36113;50.742;6.432;2023-02-05T09:47:15;5.88;;;2.40;;
50225;SDS011;36113;50.742;6.432;2023-02-05T09:51:52;7.97;;;3.55;;
50225;SDS011;36113;50.742;6.432;2023-02-05T09:54:24;4.50;;;3.05;;
50225;SDS011;36113;50.742;6.432;2023-02-05T09:56:53;4.10;;;2.67;;
50225;SDS011;36113;50.742;6.432;2023-02-05T09:59:22;5.97;;;4.60;;
50225;SDS011;36113;50.742;6.432;2023-02-05T10:01:57;9.23;;;2.45;;
50225;SDS011;36113;50.742;6.432;2023-02-05T10:04:24;6.63;;;3.17;;
50225;SDS011;36113;50.742;6.432;2023-02-05T10:15:46;5.88;;;3.30;;
50225;SDS011;36113;50.742;6.432;2023-02-05T10:26:39;5.93;;;3.00;;
50225;SDS011;36113;50.742;6.432;2023-02-05T10:29:26;7.55;;;2.45;;
50225;SDS011;36113;50.742;6.432;2023-02-05T10:32:08;8.05;;;3.20;;
50225;SDS011;36113;50.742;6.432;2023-02-05T10:37:17;5.68;;;2.83;;
50225;SDS011;36113;50.742;6.432;2023-02-05T10:39:44;7.03;;;3.20;;
50225;SDS011;36113;50.742;6.432;2023-02-05T10:44:48;5.70;;;2.33;;
50225;SDS011;36113;50.742;6.432;2023-02-05T10:47:38;8.93;;;2.53;;
50225;SDS011;36113;50.742;6.432;2023-02-05T10:50:21;6.63;;;3.05;;
50225;SDS011;36113;50.742;6.432;2023-02-05T10:52:51;10.40;;;2.75;;
50225;SDS011;36113;50.742;6.432;2023-02-05T10:55:16;6.03;;;2.00;;
50225;SDS011;36113;50.742;6.432;2023-02-05T10:57:42;6.93;;;4.03;;
50225;SDS011;36113;50.742;6.432;2023-02-05T11:02:50;13.35;;;3.08;;
50225;SDS011;36113;50.742;6.432;2023-02-05T11:05:33;4.82;;;2.25;;
50225;SDS011;36113;50.742;6.432;2023-02-05T11:08:02;9.13;;;3.03;;
50225;SDS011;36113;50.742;6.432;2023-02-05T11:10:29;9.43;;;2.80;;
50225;SDS011;36113;50.742;6.432;2023-02-05T11:13:17;5.72;;;2.40;;
50225;SDS011;36113;50.742;6.432;2023-02-05T11:15:53;12.35;;;3.65;;
50225;SDS011;36113;50.742;6.432;2023-02-05T11:18:22;8.90;;;2.55;;
50225;SDS011;36113;50.742;6.432;2023-02-05T11:20:54;7.60;;;3.25;;
50225;SDS011;36113;50.742;6.432;2023-02-05T11:23:22;4.95;;;2.35;;
50225;SDS011;36113;50.742;6.432;2023-02-05T11:28:32;9.40;;;2.88;;
50225;SDS011;36113;50.742;6.432;2023-02-05T11:36:32;7.13;;;3.25;;
50225;SDS011;36113;50.742;6.432;2023-02-05T11:38:58;13.90;;;4.38;;
50225;SDS011;36113;50.742;6.432;2023-02-05T11:41:28;7.30;;;3.08;;
50225;SDS011;36113;50.742;6.432;2023-02-05T11:44:32;9.55;;;3.40;;
50225;SDS011;36113;50.742;6.432;2023-02-05T11:46:59;12.47;;;2.73;;
50225;SDS011;36113;50.742;6.432;2023-02-05T11:49:34;12.02;;;3.00;;
50225;SDS011;36113;50.742;6.432;2023-02-05T11:52:11;9.40;;;4.05;;
50225;SDS011;36113;50.742;6.432;2023-02-05T11:54:42;11.10;;;2.88;;
50225;SDS011;36113;50.742;6.432;2023-02-05T11:59:42;10.77;;;4.07;;
50225;SDS011;36113;50.742;6.432;2023-02-05T12:02:33;11.43;;;3.85;;
50225;SDS011;36113;50.742;6.432;2023-02-05T12:07:39;13.97;;;3.53;;
50225;SDS011;36113;50.742;6.432;2023-02-05T12:10:13;10.68;;;3.88;;
50225;SDS011;36113;50.742;6.432;2023-02-05T12:12:58;14.70;;;3.65;;
50225;SDS011;36113;50.742;6.432;2023-02-05T12:15:37;10.55;;;3.28;;
50225;SDS011;36113;50.742;6.432;2023-02-05T12:18:15;13.23;;;3.83;;
50225;SDS011;36113;50.742;6.432;2023-02-05T12:21:08;12.07;;;4.35;;
50225;SDS011;36113;50.742;6.432;2023-02-05T12:24:11;22.30;;;7.78;;
50225;SDS011;36113;50.742;6.432;2023-02-05T12:26:45;16.80;;;5.68;;
50225;SDS011;36113;50.742;6.432;2023-02-05T12:37:30;17.65;;;3.72;;
50225;SDS011;36113;50.742;6.432;2023-02-05T12:42:44;12.13;;;2.97;;
50225;SDS011;36113;50.742;6.432;2023-02-05T12:56:40;8.65;;;2.58;;
50225;SDS011;36113;50.742;6.432;2023-02-05T12:59:16;14.80;;;2.35;;
50225;SDS011;36113;50.742;6.432;2023-02-05T13:09:53;13.18;;;3.92;;
50225;SDS011;36113;50.742;6.432;2023-02-05T13:12:22;15.70;;;3.45;;
50225;SDS011;36113;50.742;6.432;2023-02-05T13:17:26;14.88;;;2.95;;
50225;SDS011;36113;50.742;6.432;2023-02-05T13:19:57;10.60;;;3.05;;
50225;SDS011;36113;50.742;6.432;2023-02-05T13:22:27;14.55;;;3.45;;
50225;SDS011;36113;50.742;6.432;2023-02-05T13:25:24;11.10;;;2.78;;
50225;SDS011;36113;50.742;6.432;2023-02-05T13:28:13;10.35;;;2.78;;
50225;SDS011;36113;50.742;6.432;2023-02-05T13:31:04;12.20;;;2.42;;
50225;SDS011;36113;50.742;6.432;2023-02-05T13:33:35;13.18;;;3.15;;
50225;SDS011;36113;50.742;6.432;2023-02-05T13:39:06;5.68;;;2.35;;
50225;SDS011;36113;50.742;6.432;2023-02-05T13:56:09;13.77;;;2.70;;
50225;SDS011;36113;50.742;6.432;2023-02-05T13:58:47;11.68;;;2.78;;
50225;SDS011;36113;50.742;6.432;2023-02-05T14:01:22;16.70;;;2.80;;
50225;SDS011;36113;50.742;6.432;2023-02-05T14:03:57;7.97;;;2.60;;
50225;SDS011;36113;50.742;6.432;2023-02-05T14:06:31;12.20;;;2.70;;
50225;SDS011;36113;50.742;6.432;2023-02-05T14:11:45;12.35;;;2.25;;
50225;SDS011;36113;50.742;6.432;2023-02-05T14:16:51;9.77;;;2.10;;
50225;SDS011;36113;50.742;6.432;2023-02-05T14:21:55;18.05;;;3.13;;
50225;SDS011;36113;50.742;6.432;2023-02-05T14:33:01;8.50;;;2.08;;
50225;SDS011;36113;50.742;6.432;2023-02-05T14:35:31;12.88;;;2.10;;
50225;SDS011;36113;50.742;6.432;2023-02-05T14:38:02;14.75;;;2.38;;
50225;SDS011;36113;50.742;6.432;2023-02-05T14:40:43;13.60;;;2.72;;
50225;SDS011;36113;50.742;6.432;2023-02-05T14:43:33;8.18;;;2.28;;
50225;SDS011;36113;50.742;6.432;2023-02-05T14:46:51;13.57;;;2.40;;
50225;SDS011;36113;50.742;6.432;2023-02-05T14:49:05;8.45;;;2.35;;
50225;SDS011;36113;50.742;6.432;2023-02-05T14:51:39;7.47;;;1.73;;
50225;SDS011;36113;50.742;6.432;2023-02-05T14:54:11;8.80;;;2.30;;
50225;SDS011;36113;50.742;6.432;2023-02-05T14:56:41;11.30;;;2.13;;
50225;SDS011;36113;50.742;6.432;2023-02-05T15:01:54;10.25;;;1.83;;
50225;SDS011;36113;50.742;6.432;2023-02-05T15:07:08;11.27;;;2.35;;
50225;SDS011;36113;50.742;6.432;2023-02-05T15:09:41;11.20;;;2.58;;
50225;SDS011;36113;50.742;6.432;2023-02-05T15:12:20;8.40;;;1.85;;
50225;SDS011;36113;50.742;6.432;2023-02-05T15:14:55;15.63;;;2.78;;
50225;SDS011;36113;50.742;6.432;2023-02-05T15:19:53;12.23;;;2.03;;
50225;SDS011;36113;50.742;6.432;2023-02-05T15:22:23;11.48;;;2.40;;
50225;SDS011;36113;50.742;6.432;2023-02-05T15:24:49;8.60;;;2.13;;
50225;SDS011;36113;50.742;6.432;2023-02-05T15:27:18;8.82;;;2.03;;
50225;SDS011;36113;50.742;6.432;2023-02-05T15:29:47;14.10;;;2.17;;
50225;SDS011;36113;50.742;6.432;2023-02-05T15:32:22;9.05;;;2.45;;
50225;SDS011;36113;50.742;6.432;2023-02-05T15:34:53;11.05;;;2.20;;
50225;SDS011;36113;50.742;6.432;2023-02-05T15:37:26;9.52;;;2.08;;
50225;SDS011;36113;50.742;6.432;2023-02-05T15:39:56;10.20;;;2.95;;
50225;SDS011;36113;50.742;6.432;2023-02-05T15:42:27;11.55;;;2.05;;
50225;SDS011;36113;50.742;6.432;2023-02-05T15:44:56;6.28;;;2.00;;
50225;SDS011;36113;50.742;6.432;2023-02-05T15:47:22;11.85;;;2.60;;
50225;SDS011;36113;50.742;6.432;2023-02-05T15:49:53;7.43;;;2.90;;
50225;SDS011;36113;50.742;6.432;2023-02-05T15:52:26;13.25;;;2.95;;
50225;SDS011;36113;50.742;6.432;2023-02-05T15:54:54;15.60;;;2.33;;
50225;SDS011;36113;50.742;6.432;2023-02-05T15:57:23;8.65;;;2.47;;
50225;SDS011;36113;50.742;6.432;2023-02-05T15:59:52;11.00;;;2.33;;
50225;SDS011;36113;50.742;6.432;2023-02-05T16:04:52;12.75;;;2.15;;
50225;SDS011;36113;50.742;6.432;2023-02-05T16:07:26;9.70;;;3.10;;
50225;SDS011;36113;50.742;6.432;2023-02-05T16:10:13;12.82;;;3.20;;
50225;SDS011;36113;50.742;6.432;2023-02-05T16:12:55;20.60;;;3.60;;
50225;SDS011;36113;50.742;6.432;2023-02-05T16:15:23;14.13;;;3.28;;
50225;SDS011;36113;50.742;6.432;2023-02-05T16:17:53;18.45;;;3.30;;
50225;SDS011;36113;50.742;6.432;2023-02-05T16:20:31;13.55;;;3.28;;
50225;SDS011;36113;50.742;6.432;2023-02-05T16:22:59;12.68;;;2.95;;
50225;SDS011;36113;50.742;6.432;2023-02-05T16:25:51;9.07;;;2.60;;
50225;SDS011;36113;50.742;6.432;2023-02-05T16:31:01;11.02;;;2.85;;
50225;SDS011;36113;50.742;6.432;2023-02-05T16:33:30;15.98;;;3.10;;
50225;SDS011;36113;50.742;6.432;2023-02-05T16:36:04;16.08;;;3.95;;
50225;SDS011;36113;50.742;6.432;2023-02-05T16:38:31;17.17;;;3.72;;
50225;SDS011;36113;50.742;6.432;2023-02-05T16:40:59;14.70;;;4.50;;
50225;SDS011;36113;50.742;6.432;2023-02-05T16:43:41;11.30;;;3.70;;
50225;SDS011;36113;50.742;6.432;2023-02-05T16:48:33;33.95;;;8.30;;
50225;SDS011;36113;50.742;6.432;2023-02-05T16:50:59;29.52;;;7.32;;
50225;SDS011;36113;50.742;6.432;2023-02-05T16:53:29;13.25;;;4.32;;
50225;SDS011;36113;50.742;6.432;2023-02-05T16:58:43;22.42;;;6.30;;
50225;SDS011;36113;50.742;6.432;2023-02-05T17:01:10;20.98;;;4.07;;
50225;SDS011;36113;50.742;6.432;2023-02-05T17:03:37;15.43;;;4.72;;
50225;SDS011;36113;50.742;6.432;2023-02-05T17:06:07;13.05;;;4.18;;
50225;SDS011;36113;50.742;6.432;2023-02-05T17:08:39;12.70;;;3.40;;
50225;SDS011;36113;50.742;6.432;2023-02-05T17:13:51;21.15;;;3.33;;
50225;SDS011;36113;50.742;6.432;2023-02-05T17:16:55;16.48;;;3.72;;
50225;SDS011;36113;50.742;6.432;2023-02-05T17:19:28;11.48;;;2.42;;
50225;SDS011;36113;50.742;6.432;2023-02-05T17:22:17;14.75;;;2.60;;
50225;SDS011;36113;50.742;6.432;2023-02-05T17:24:45;15.80;;;3.33;;
50225;SDS011;36113;50.742;6.432;2023-02-05T17:27:21;18.90;;;3.58;;
50225;SDS011;36113;50.742;6.432;2023-02-05T17:30:02;15.32;;;3.38;;